Flight Track Log - Related Links

Times and Time Zones

All times are in EDT time to prevent confusion due to time zone crossing. See the BJS439 flight status page for this flight to view local times or setup timezone preferences in your user account.

Time Position Orientation Groundspeed Altitude Reporting Facility
EDT Latitude Longitude Course Direction KTS MPH feet Rate Location/Type
Sun 07:09:33 PM 27.9833 -82.0500 270° West 175 201 1,700  Level Tampa TRACON
Sun 07:10:33 PM 27.9167 -82.0500 180° South 226 260 2,900 1,211 Climbing Tampa TRACON
Sun 07:11:27 PM 27.8667 -82.0333 164° South 247 284 4,000 943 Climbing Tampa TRACON
Sun 07:11:43 PM 27.8444 -82.0297 172° South 251 289 4,000 158 Level Miami Center
Sun 07:12:43 PM 27.7881 -81.9778 141° Southeast 233 268 4,200 1,700 Climbing Miami Center
Sun 07:13:43 PM 27.7272 -81.9236 142° Southeast 265 305 7,400 3,050 Climbing Miami Center
Sun 07:14:43 PM 27.6708 -81.8625 136° Southeast 278 320 10,300 3,350 Climbing Miami Center
Sun 07:15:43 PM 27.6150 -81.7944 133° Southeast 307 353 14,100 3,000 Climbing Miami Center
Sun 07:16:43 PM 27.5428 -81.7072 133° Southeast 351 404 16,300 1,450 Climbing Miami Center
Sun 07:17:43 PM 27.4667 -81.6125 132° Southeast 383 441 17,000 350 Climbing Miami Center
Sun 07:18:43 PM 27.3881 -81.5206 134° Southeast 402 463 17,000  Level Miami Center
Sun 07:19:43 PM 27.3139 -81.4311 133° Southeast 402 463 17,000  Level Miami Center
Sun 07:20:43 PM 27.2372 -81.3392 133° Southeast 402 463 17,000  Level Miami Center
Sun 07:21:43 PM 27.1547 -81.2381 133° Southeast 407 468 17,000 -250 Level Miami Center
Sun 07:22:43 PM 27.0803 -81.1467 132° Southeast 402 463 16,500 -1,250 Descending Miami Center
Sun 07:23:43 PM 27.0197 -81.0744 133° Southeast 402 463 14,500 -2,250 Descending Miami Center
Sun 07:24:43 PM 26.9450 -80.9856 133° Southeast 371 427 12,000 -2,200 Descending Miami Center
Sun 07:25:43 PM 26.8806 -80.9067 132° Southeast 337 388 10,100 -1,000 Descending Miami Center
Sun 07:26:43 PM 26.8283 -80.8325 128° Southeast 299 344 10,000 -50 Descending Miami Center
Sun 07:27:43 PM 26.7972 -80.7456 112° Southeast 294 338 10,000 -450 Level Miami Center
Sun 07:28:43 PM 26.7642 -80.6583 113° Southeast 301 346 9,100 -1,350 Descending Miami Center
Sun 07:29:43 PM 26.7389 -80.5831 111° Southeast 295 339 7,300 -1,950 Descending Miami Center
Sun 07:30:43 PM 26.7056 -80.4983 114° Southeast 278 320 5,200 -1,800 Descending Miami Center
Sun 07:31:43 PM 26.6947 -80.4283 100° East 264 304 3,700 -1,100 Descending Miami Center
Sun 07:32:43 PM 26.6903 -80.3492 94° East 248 285 3,000 -750 Descending Miami Center
Sun 07:33:43 PM 26.6894 -80.2978 91° East 198 228 2,200 -500 Descending Miami Center
Sun 07:34:43 PM 26.6867 -80.2397 93° East 178 205 2,000 -200 Descending Miami Center
Sun 07:36:00 PM 26.6841 -80.1324 53° Northeast  Level Estimated
Sun 07:43:00 PM 26.6832 -80.0956 50° Northeast  Level Estimated
Sun 07:44:00 PM 26.6832 -80.0956 50° Northeast  Level Estimated
Sun 07:45:00 PM 26.6832 -80.0956 50° Northeast  Level Estimated
Sun 07:46:00 PM 26.6832 -80.0956 50° Northeast  Level Estimated

Login

Don't have an account? Register now (free) for customized features, flight alerts, and more!